sensor_id;sensor_type;location;lat;lon;timestamp;P1;durP1;ratioP1;P2;durP2;ratioP2
59338;SDS011;45117;50.960;5.500;2022-09-09T00:01:28;2.78;;;0.98;;
59338;SDS011;45117;50.960;5.500;2022-09-09T00:04:03;1.88;;;0.95;;
59338;SDS011;45117;50.960;5.500;2022-09-09T00:06:42;5.70;;;1.00;;
59338;SDS011;45117;50.960;5.500;2022-09-09T00:09:14;2.35;;;0.70;;
59338;SDS011;45117;50.960;5.500;2022-09-09T00:11:44;1.25;;;0.70;;
59338;SDS011;45117;50.960;5.500;2022-09-09T00:14:17;3.30;;;1.00;;
59338;SDS011;45117;50.960;5.500;2022-09-09T00:16:50;2.47;;;1.00;;
59338;SDS011;45117;50.960;5.500;2022-09-09T00:19:22;2.17;;;0.90;;
59338;SDS011;45117;50.960;5.500;2022-09-09T00:21:56;2.47;;;1.00;;
59338;SDS011;45117;50.960;5.500;2022-09-09T00:24:35;1.50;;;0.95;;
59338;SDS011;45117;50.960;5.500;2022-09-09T00:27:08;2.22;;;1.02;;
59338;SDS011;45117;50.960;5.500;2022-09-09T00:29:41;2.35;;;1.10;;
59338;SDS011;45117;50.960;5.500;2022-09-09T00:32:12;3.97;;;0.80;;
59338;SDS011;45117;50.960;5.500;2022-09-09T00:34:46;2.40;;;0.70;;
59338;SDS011;45117;50.960;5.500;2022-09-09T00:37:15;1.65;;;0.85;;
59338;SDS011;45117;50.960;5.500;2022-09-09T00:39:44;4.07;;;1.10;;
59338;SDS011;45117;50.960;5.500;2022-09-09T00:42:14;2.17;;;1.00;;
59338;SDS011;45117;50.960;5.500;2022-09-09T00:44:53;4.32;;;1.02;;
59338;SDS011;45117;50.960;5.500;2022-09-09T00:47:28;3.10;;;0.85;;
59338;SDS011;45117;50.960;5.500;2022-09-09T00:50:16;1.83;;;1.02;;
59338;SDS011;45117;50.960;5.500;2022-09-09T00:52:56;4.15;;;1.08;;
59338;SDS011;45117;50.960;5.500;2022-09-09T00:55:36;3.25;;;1.08;;
59338;SDS011;45117;50.960;5.500;2022-09-09T00:58:09;3.78;;;0.95;;
59338;SDS011;45117;50.960;5.500;2022-09-09T01:00:37;3.10;;;1.08;;
59338;SDS011;45117;50.960;5.500;2022-09-09T01:03:16;4.68;;;1.13;;
59338;SDS011;45117;50.960;5.500;2022-09-09T01:05:51;0.90;;;0.77;;
59338;SDS011;45117;50.960;5.500;2022-09-09T01:08:30;2.20;;;0.90;;
59338;SDS011;45117;50.960;5.500;2022-09-09T01:11:07;4.82;;;1.20;;
59338;SDS011;45117;50.960;5.500;2022-09-09T01:13:37;2.55;;;0.80;;
59338;SDS011;45117;50.960;5.500;2022-09-09T01:16:04;2.88;;;1.00;;
59338;SDS011;45117;50.960;5.500;2022-09-09T01:18:37;3.00;;;0.80;;
59338;SDS011;45117;50.960;5.500;2022-09-09T01:21:09;4.07;;;1.15;;
59338;SDS011;45117;50.960;5.500;2022-09-09T01:23:59;4.15;;;1.00;;
59338;SDS011;45117;50.960;5.500;2022-09-09T01:26:36;6.57;;;1.40;;
59338;SDS011;45117;50.960;5.500;2022-09-09T01:29:04;3.20;;;1.20;;
59338;SDS011;45117;50.960;5.500;2022-09-09T01:31:35;5.03;;;1.17;;
59338;SDS011;45117;50.960;5.500;2022-09-09T01:34:07;7.18;;;1.33;;
59338;SDS011;45117;50.960;5.500;2022-09-09T01:36:37;4.72;;;1.30;;
59338;SDS011;45117;50.960;5.500;2022-09-09T01:39:06;4.80;;;1.50;;
59338;SDS011;45117;50.960;5.500;2022-09-09T01:41:33;3.60;;;1.20;;
59338;SDS011;45117;50.960;5.500;2022-09-09T01:44:01;3.88;;;1.30;;
59338;SDS011;45117;50.960;5.500;2022-09-09T01:46:28;4.78;;;1.40;;
59338;SDS011;45117;50.960;5.500;2022-09-09T01:48:55;4.95;;;1.40;;
59338;SDS011;45117;50.960;5.500;2022-09-09T01:51:24;3.80;;;1.20;;
59338;SDS011;45117;50.960;5.500;2022-09-09T01:53:50;4.53;;;1.40;;
59338;SDS011;45117;50.960;5.500;2022-09-09T01:56:20;3.15;;;1.40;;
59338;SDS011;45117;50.960;5.500;2022-09-09T01:58:58;4.75;;;1.50;;
59338;SDS011;45117;50.960;5.500;2022-09-09T02:01:36;4.38;;;1.50;;
59338;SDS011;45117;50.960;5.500;2022-09-09T02:04:14;7.70;;;2.28;;
59338;SDS011;45117;50.960;5.500;2022-09-09T02:06:49;5.85;;;1.60;;
59338;SDS011;45117;50.960;5.500;2022-09-09T02:09:19;4.30;;;1.40;;
59338;SDS011;45117;50.960;5.500;2022-09-09T02:11:49;5.15;;;1.60;;
59338;SDS011;45117;50.960;5.500;2022-09-09T02:14:27;6.50;;;1.63;;
59338;SDS011;45117;50.960;5.500;2022-09-09T02:16:56;6.30;;;1.52;;
59338;SDS011;45117;50.960;5.500;2022-09-09T02:19:28;6.22;;;1.55;;
59338;SDS011;45117;50.960;5.500;2022-09-09T02:21:59;4.43;;;1.40;;
59338;SDS011;45117;50.960;5.500;2022-09-09T02:24:26;4.70;;;1.58;;
59338;SDS011;45117;50.960;5.500;2022-09-09T02:26:56;9.25;;;2.17;;
59338;SDS011;45117;50.960;5.500;2022-09-09T02:29:28;3.08;;;1.33;;
59338;SDS011;45117;50.960;5.500;2022-09-09T02:31:59;7.43;;;1.65;;
59338;SDS011;45117;50.960;5.500;2022-09-09T02:34:29;8.80;;;1.88;;
59338;SDS011;45117;50.960;5.500;2022-09-09T02:37:01;4.30;;;1.85;;
59338;SDS011;45117;50.960;5.500;2022-09-09T02:39:29;4.80;;;1.92;;
59338;SDS011;45117;50.960;5.500;2022-09-09T02:41:56;7.95;;;1.85;;
59338;SDS011;45117;50.960;5.500;2022-09-09T02:44:23;6.45;;;1.85;;
59338;SDS011;45117;50.960;5.500;2022-09-09T02:46:57;7.03;;;1.95;;
59338;SDS011;45117;50.960;5.500;2022-09-09T02:49:37;7.03;;;1.70;;
59338;SDS011;45117;50.960;5.500;2022-09-09T02:52:12;6.97;;;2.25;;
59338;SDS011;45117;50.960;5.500;2022-09-09T02:54:41;7.20;;;2.00;;
59338;SDS011;45117;50.960;5.500;2022-09-09T02:57:10;6.65;;;1.80;;
59338;SDS011;45117;50.960;5.500;2022-09-09T02:59:39;5.03;;;1.63;;
59338;SDS011;45117;50.960;5.500;2022-09-09T03:02:08;3.50;;;1.73;;
59338;SDS011;45117;50.960;5.500;2022-09-09T03:04:35;6.70;;;1.90;;
59338;SDS011;45117;50.960;5.500;2022-09-09T03:07:01;8.02;;;1.95;;
59338;SDS011;45117;50.960;5.500;2022-09-09T03:09:28;5.15;;;1.58;;
59338;SDS011;45117;50.960;5.500;2022-09-09T03:11:55;5.00;;;1.83;;
59338;SDS011;45117;50.960;5.500;2022-09-09T03:14:21;4.82;;;1.48;;
59338;SDS011;45117;50.960;5.500;2022-09-09T03:16:50;5.82;;;1.60;;
59338;SDS011;45117;50.960;5.500;2022-09-09T03:19:18;4.47;;;1.50;;
59338;SDS011;45117;50.960;5.500;2022-09-09T03:21:44;6.00;;;1.80;;
59338;SDS011;45117;50.960;5.500;2022-09-09T03:24:11;7.70;;;1.67;;
59338;SDS011;45117;50.960;5.500;2022-09-09T03:26:39;6.15;;;1.42;;
59338;SDS011;45117;50.960;5.500;2022-09-09T03:29:05;3.83;;;1.38;;
59338;SDS011;45117;50.960;5.500;2022-09-09T03:31:32;5.80;;;1.55;;
59338;SDS011;45117;50.960;5.500;2022-09-09T03:33:59;8.20;;;1.60;;
59338;SDS011;45117;50.960;5.500;2022-09-09T03:36:27;5.95;;;1.40;;
59338;SDS011;45117;50.960;5.500;2022-09-09T03:38:54;7.07;;;1.55;;
59338;SDS011;45117;50.960;5.500;2022-09-09T03:41:21;4.43;;;1.67;;
59338;SDS011;45117;50.960;5.500;2022-09-09T03:43:48;5.75;;;2.05;;
59338;SDS011;45117;50.960;5.500;2022-09-09T03:46:15;5.80;;;1.50;;
59338;SDS011;45117;50.960;5.500;2022-09-09T03:48:42;7.70;;;1.80;;
59338;SDS011;45117;50.960;5.500;2022-09-09T03:51:08;7.28;;;1.38;;
59338;SDS011;45117;50.960;5.500;2022-09-09T03:53:37;5.68;;;1.65;;
59338;SDS011;45117;50.960;5.500;2022-09-09T03:56:04;7.38;;;1.45;;
59338;SDS011;45117;50.960;5.500;2022-09-09T03:58:32;4.40;;;1.40;;
59338;SDS011;45117;50.960;5.500;2022-09-09T04:00:59;6.45;;;1.75;;
59338;SDS011;45117;50.960;5.500;2022-09-09T04:03:27;4.00;;;1.33;;
59338;SDS011;45117;50.960;5.500;2022-09-09T04:05:55;5.00;;;1.40;;
59338;SDS011;45117;50.960;5.500;2022-09-09T04:08:23;7.13;;;1.70;;
59338;SDS011;45117;50.960;5.500;2022-09-09T04:10:51;5.60;;;1.35;;
59338;SDS011;45117;50.960;5.500;2022-09-09T04:13:18;6.32;;;1.40;;
59338;SDS011;45117;50.960;5.500;2022-09-09T04:15:50;5.63;;;1.52;;
59338;SDS011;45117;50.960;5.500;2022-09-09T04:18:17;5.13;;;1.40;;
59338;SDS011;45117;50.960;5.500;2022-09-09T04:20:45;5.47;;;1.80;;
59338;SDS011;45117;50.960;5.500;2022-09-09T04:23:12;5.65;;;1.63;;
59338;SDS011;45117;50.960;5.500;2022-09-09T04:25:42;7.30;;;1.85;;
59338;SDS011;45117;50.960;5.500;2022-09-09T04:28:11;5.45;;;1.52;;
59338;SDS011;45117;50.960;5.500;2022-09-09T04:30:38;4.50;;;1.60;;
59338;SDS011;45117;50.960;5.500;2022-09-09T04:33:05;3.67;;;1.40;;
59338;SDS011;45117;50.960;5.500;2022-09-09T04:35:32;8.85;;;1.83;;
59338;SDS011;45117;50.960;5.500;2022-09-09T04:37:59;4.22;;;1.50;;
59338;SDS011;45117;50.960;5.500;2022-09-09T04:40:27;4.65;;;1.70;;
59338;SDS011;45117;50.960;5.500;2022-09-09T04:42:54;4.05;;;1.50;;
59338;SDS011;45117;50.960;5.500;2022-09-09T04:45:22;5.55;;;1.67;;
59338;SDS011;45117;50.960;5.500;2022-09-09T04:47:48;7.57;;;1.83;;
59338;SDS011;45117;50.960;5.500;2022-09-09T04:50:15;7.90;;;1.65;;
59338;SDS011;45117;50.960;5.500;2022-09-09T04:52:42;6.35;;;1.60;;
59338;SDS011;45117;50.960;5.500;2022-09-09T04:55:08;5.00;;;1.50;;
59338;SDS011;45117;50.960;5.500;2022-09-09T04:57:35;7.07;;;1.67;;
59338;SDS011;45117;50.960;5.500;2022-09-09T05:00:02;6.50;;;1.65;;
59338;SDS011;45117;50.960;5.500;2022-09-09T05:02:31;6.53;;;1.60;;
59338;SDS011;45117;50.960;5.500;2022-09-09T05:04:58;6.28;;;2.15;;
59338;SDS011;45117;50.960;5.500;2022-09-09T05:07:26;10.82;;;1.77;;
59338;SDS011;45117;50.960;5.500;2022-09-09T05:09:54;8.05;;;1.85;;
59338;SDS011;45117;50.960;5.500;2022-09-09T05:12:20;7.15;;;1.60;;
59338;SDS011;45117;50.960;5.500;2022-09-09T05:14:49;6.82;;;1.58;;
59338;SDS011;45117;50.960;5.500;2022-09-09T05:17:15;5.53;;;1.40;;
59338;SDS011;45117;50.960;5.500;2022-09-09T05:19:44;7.05;;;1.67;;
59338;SDS011;45117;50.960;5.500;2022-09-09T05:22:10;4.03;;;1.60;;
59338;SDS011;45117;50.960;5.500;2022-09-09T05:24:37;6.45;;;1.70;;
59338;SDS011;45117;50.960;5.500;2022-09-09T05:27:04;12.23;;;2.05;;
59338;SDS011;45117;50.960;5.500;2022-09-09T05:29:31;5.47;;;1.67;;
59338;SDS011;45117;50.960;5.500;2022-09-09T05:31:58;4.97;;;1.40;;
59338;SDS011;45117;50.960;5.500;2022-09-09T05:34:25;5.18;;;1.63;;
59338;SDS011;45117;50.960;5.500;2022-09-09T05:36:53;8.05;;;1.63;;
59338;SDS011;45117;50.960;5.500;2022-09-09T05:39:20;7.30;;;1.67;;
59338;SDS011;45117;50.960;5.500;2022-09-09T05:41:46;8.02;;;1.98;;
59338;SDS011;45117;50.960;5.500;2022-09-09T05:44:13;7.53;;;1.98;;
59338;SDS011;45117;50.960;5.500;2022-09-09T05:46:39;11.70;;;2.30;;
59338;SDS011;45117;50.960;5.500;2022-09-09T05:49:06;9.40;;;2.15;;
59338;SDS011;45117;50.960;5.500;2022-09-09T05:51:33;7.20;;;2.05;;
59338;SDS011;45117;50.960;5.500;2022-09-09T05:54:01;9.93;;;2.10;;
59338;SDS011;45117;50.960;5.500;2022-09-09T05:56:28;8.48;;;2.00;;
59338;SDS011;45117;50.960;5.500;2022-09-09T05:58:55;11.15;;;2.22;;
59338;SDS011;45117;50.960;5.500;2022-09-09T06:01:23;5.75;;;1.27;;
59338;SDS011;45117;50.960;5.500;2022-09-09T06:03:51;8.60;;;1.70;;
59338;SDS011;45117;50.960;5.500;2022-09-09T06:06:18;7.75;;;1.85;;
59338;SDS011;45117;50.960;5.500;2022-09-09T06:08:46;8.30;;;2.13;;
59338;SDS011;45117;50.960;5.500;2022-09-09T06:11:16;10.00;;;2.00;;
59338;SDS011;45117;50.960;5.500;2022-09-09T06:13:44;8.40;;;2.17;;
59338;SDS011;45117;50.960;5.500;2022-09-09T06:16:11;7.78;;;1.98;;
59338;SDS011;45117;50.960;5.500;2022-09-09T06:18:38;5.85;;;2.03;;
59338;SDS011;45117;50.960;5.500;2022-09-09T06:21:06;7.15;;;1.70;;
59338;SDS011;45117;50.960;5.500;2022-09-09T06:23:41;10.85;;;2.17;;
59338;SDS011;45117;50.960;5.500;2022-09-09T06:26:09;10.25;;;2.03;;
59338;SDS011;45117;50.960;5.500;2022-09-09T06:28:39;6.53;;;1.90;;
59338;SDS011;45117;50.960;5.500;2022-09-09T06:31:08;7.03;;;1.77;;
59338;SDS011;45117;50.960;5.500;2022-09-09T06:33:36;10.52;;;1.98;;
59338;SDS011;45117;50.960;5.500;2022-09-09T06:36:06;6.55;;;1.63;;
59338;SDS011;45117;50.960;5.500;2022-09-09T06:38:36;8.52;;;2.20;;
59338;SDS011;45117;50.960;5.500;2022-09-09T06:41:03;8.85;;;2.00;;
59338;SDS011;45117;50.960;5.500;2022-09-09T06:43:31;9.80;;;2.20;;
59338;SDS011;45117;50.960;5.500;2022-09-09T06:45:59;6.45;;;1.73;;
59338;SDS011;45117;50.960;5.500;2022-09-09T06:48:27;9.10;;;2.08;;
59338;SDS011;45117;50.960;5.500;2022-09-09T06:51:00;5.68;;;1.50;;
59338;SDS011;45117;50.960;5.500;2022-09-09T06:53:27;8.55;;;1.52;;
59338;SDS011;45117;50.960;5.500;2022-09-09T06:55:54;7.43;;;1.58;;
59338;SDS011;45117;50.960;5.500;2022-09-09T06:58:20;5.50;;;1.13;;
59338;SDS011;45117;50.960;5.500;2022-09-09T07:00:48;6.82;;;1.50;;
59338;SDS011;45117;50.960;5.500;2022-09-09T07:03:16;9.60;;;1.63;;
59338;SDS011;45117;50.960;5.500;2022-09-09T07:05:42;5.50;;;1.30;;
59338;SDS011;45117;50.960;5.500;2022-09-09T07:08:09;5.53;;;1.20;;
59338;SDS011;45117;50.960;5.500;2022-09-09T07:10:37;8.10;;;1.25;;
59338;SDS011;45117;50.960;5.500;2022-09-09T07:13:03;4.10;;;1.38;;
59338;SDS011;45117;50.960;5.500;2022-09-09T07:15:30;4.55;;;1.45;;
59338;SDS011;45117;50.960;5.500;2022-09-09T07:18:00;4.40;;;1.50;;
59338;SDS011;45117;50.960;5.500;2022-09-09T07:20:28;5.55;;;1.50;;
59338;SDS011;45117;50.960;5.500;2022-09-09T07:22:55;6.40;;;2.00;;
59338;SDS011;45117;50.960;5.500;2022-09-09T07:25:23;6.07;;;1.42;;
59338;SDS011;45117;50.960;5.500;2022-09-09T07:27:51;5.30;;;1.40;;
59338;SDS011;45117;50.960;5.500;2022-09-09T07:30:18;7.70;;;1.30;;
59338;SDS011;45117;50.960;5.500;2022-09-09T07:32:44;7.88;;;1.73;;
59338;SDS011;45117;50.960;5.500;2022-09-09T07:35:11;6.03;;;1.33;;
59338;SDS011;45117;50.960;5.500;2022-09-09T07:37:39;8.13;;;1.63;;
59338;SDS011;45117;50.960;5.500;2022-09-09T07:40:06;6.07;;;1.20;;
59338;SDS011;45117;50.960;5.500;2022-09-09T07:42:33;6.30;;;1.35;;
59338;SDS011;45117;50.960;5.500;2022-09-09T07:45:00;8.75;;;1.95;;
59338;SDS011;45117;50.960;5.500;2022-09-09T07:47:27;9.18;;;1.60;;
59338;SDS011;45117;50.960;5.500;2022-09-09T07:49:53;5.65;;;1.27;;
59338;SDS011;45117;50.960;5.500;2022-09-09T07:52:20;5.90;;;1.30;;
59338;SDS011;45117;50.960;5.500;2022-09-09T07:54:48;6.47;;;1.30;;
59338;SDS011;45117;50.960;5.500;2022-09-09T07:57:15;9.35;;;1.80;;
59338;SDS011;45117;50.960;5.500;2022-09-09T07:59:41;9.35;;;1.45;;
59338;SDS011;45117;50.960;5.500;2022-09-09T08:02:08;5.75;;;1.48;;
59338;SDS011;45117;50.960;5.500;2022-09-09T08:04:35;6.05;;;1.52;;
59338;SDS011;45117;50.960;5.500;2022-09-09T08:07:01;6.22;;;1.38;;
59338;SDS011;45117;50.960;5.500;2022-09-09T08:09:28;7.28;;;1.88;;
59338;SDS011;45117;50.960;5.500;2022-09-09T08:11:58;5.45;;;1.23;;
59338;SDS011;45117;50.960;5.500;2022-09-09T08:14:26;7.30;;;1.50;;
59338;SDS011;45117;50.960;5.500;2022-09-09T08:16:52;5.70;;;1.20;;
59338;SDS011;45117;50.960;5.500;2022-09-09T08:19:19;8.93;;;1.38;;
59338;SDS011;45117;50.960;5.500;2022-09-09T08:21:45;8.15;;;1.75;;
59338;SDS011;45117;50.960;5.500;2022-09-09T08:24:14;4.82;;;1.23;;
59338;SDS011;45117;50.960;5.500;2022-09-09T08:26:41;6.80;;;1.20;;
59338;SDS011;45117;50.960;5.500;2022-09-09T08:29:12;5.90;;;1.20;;
59338;SDS011;45117;50.960;5.500;2022-09-09T08:31:40;8.30;;;1.25;;
59338;SDS011;45117;50.960;5.500;2022-09-09T08:34:08;5.35;;;1.30;;
59338;SDS011;45117;50.960;5.500;2022-09-09T08:36:36;9.10;;;1.30;;
59338;SDS011;45117;50.960;5.500;2022-09-09T08:39:04;5.80;;;1.35;;
59338;SDS011;45117;50.960;5.500;2022-09-09T08:41:50;5.80;;;1.08;;
59338;SDS011;45117;50.960;5.500;2022-09-09T08:44:45;8.23;;;1.70;;
59338;SDS011;45117;50.960;5.500;2022-09-09T08:47:28;5.38;;;1.30;;
59338;SDS011;45117;50.960;5.500;2022-09-09T08:50:07;7.50;;;1.85;;
59338;SDS011;45117;50.960;5.500;2022-09-09T08:52:44;4.57;;;1.33;;
59338;SDS011;45117;50.960;5.500;2022-09-09T08:55:20;5.82;;;1.35;;
59338;SDS011;45117;50.960;5.500;2022-09-09T08:57:51;5.57;;;1.50;;
59338;SDS011;45117;50.960;5.500;2022-09-09T09:00:21;7.85;;;1.30;;
59338;SDS011;45117;50.960;5.500;2022-09-09T09:02:52;5.20;;;1.27;;
59338;SDS011;45117;50.960;5.500;2022-09-09T09:05:25;8.90;;;1.50;;
59338;SDS011;45117;50.960;5.500;2022-09-09T09:07:59;6.70;;;1.40;;
59338;SDS011;45117;50.960;5.500;2022-09-09T09:10:41;6.88;;;1.45;;
59338;SDS011;45117;50.960;5.500;2022-09-09T09:13:13;6.20;;;1.30;;
59338;SDS011;45117;50.960;5.500;2022-09-09T09:15:43;5.60;;;1.30;;
59338;SDS011;45117;50.960;5.500;2022-09-09T09:18:12;9.05;;;1.60;;
59338;SDS011;45117;50.960;5.500;2022-09-09T09:20:42;6.20;;;1.20;;
59338;SDS011;45117;50.960;5.500;2022-09-09T09:23:25;4.53;;;1.20;;
59338;SDS011;45117;50.960;5.500;2022-09-09T09:25:56;7.07;;;1.65;;
59338;SDS011;45117;50.960;5.500;2022-09-09T09:28:27;6.70;;;1.15;;
59338;SDS011;45117;50.960;5.500;2022-09-09T09:30:57;6.80;;;1.40;;
59338;SDS011;45117;50.960;5.500;2022-09-09T09:33:28;5.03;;;1.40;;
59338;SDS011;45117;50.960;5.500;2022-09-09T09:36:00;7.50;;;1.20;;
59338;SDS011;45117;50.960;5.500;2022-09-09T09:38:28;5.45;;;1.40;;
59338;SDS011;45117;50.960;5.500;2022-09-09T09:40:55;8.38;;;1.33;;
59338;SDS011;45117;50.960;5.500;2022-09-09T09:43:24;5.93;;;1.20;;
59338;SDS011;45117;50.960;5.500;2022-09-09T09:45:53;5.35;;;1.23;;
59338;SDS011;45117;50.960;5.500;2022-09-09T09:48:21;3.78;;;1.10;;
59338;SDS011;45117;50.960;5.500;2022-09-09T09:50:49;3.35;;;1.30;;
59338;SDS011;45117;50.960;5.500;2022-09-09T09:53:20;6.05;;;1.35;;
59338;SDS011;45117;50.960;5.500;2022-09-09T09:55:51;4.00;;;1.45;;
59338;SDS011;45117;50.960;5.500;2022-09-09T09:58:22;5.53;;;1.20;;
59338;SDS011;45117;50.960;5.500;2022-09-09T10:00:51;3.28;;;1.10;;
59338;SDS011;45117;50.960;5.500;2022-09-09T10:03:22;4.38;;;1.25;;
59338;SDS011;45117;50.960;5.500;2022-09-09T10:05:50;3.90;;;1.20;;
59338;SDS011;45117;50.960;5.500;2022-09-09T10:08:17;4.55;;;1.15;;
59338;SDS011;45117;50.960;5.500;2022-09-09T10:10:48;4.18;;;1.30;;
59338;SDS011;45117;50.960;5.500;2022-09-09T10:13:23;4.05;;;1.30;;
59338;SDS011;45117;50.960;5.500;2022-09-09T10:16:03;5.25;;;1.17;;
59338;SDS011;45117;50.960;5.500;2022-09-09T10:18:45;6.60;;;1.50;;
59338;SDS011;45117;50.960;5.500;2022-09-09T10:21:25;9.32;;;1.52;;
59338;SDS011;45117;50.960;5.500;2022-09-09T10:24:09;6.90;;;1.10;;
59338;SDS011;45117;50.960;5.500;2022-09-09T10:26:55;7.05;;;1.35;;
59338;SDS011;45117;50.960;5.500;2022-09-09T10:29:34;6.15;;;1.30;;
59338;SDS011;45117;50.960;5.500;2022-09-09T10:32:14;4.82;;;1.20;;
59338;SDS011;45117;50.960;5.500;2022-09-09T10:34:56;4.18;;;1.30;;
59338;SDS011;45117;50.960;5.500;2022-09-09T10:37:34;5.60;;;1.50;;
59338;SDS011;45117;50.960;5.500;2022-09-09T10:40:15;5.88;;;1.40;;
59338;SDS011;45117;50.960;5.500;2022-09-09T10:42:51;2.78;;;1.30;;
59338;SDS011;45117;50.960;5.500;2022-09-09T10:45:23;4.35;;;1.40;;
59338;SDS011;45117;50.960;5.500;2022-09-09T10:48:03;7.35;;;1.73;;
59338;SDS011;45117;50.960;5.500;2022-09-09T10:50:52;7.03;;;1.88;;
59338;SDS011;45117;50.960;5.500;2022-09-09T10:53:26;5.35;;;2.00;;
59338;SDS011;45117;50.960;5.500;2022-09-09T10:56:01;9.77;;;2.10;;
59338;SDS011;45117;50.960;5.500;2022-09-09T10:58:33;5.22;;;1.80;;
59338;SDS011;45117;50.960;5.500;2022-09-09T11:01:06;5.15;;;1.60;;
59338;SDS011;45117;50.960;5.500;2022-09-09T11:03:41;5.20;;;1.67;;
59338;SDS011;45117;50.960;5.500;2022-09-09T11:06:12;4.53;;;1.60;;
59338;SDS011;45117;50.960;5.500;2022-09-09T11:08:43;5.18;;;2.00;;
59338;SDS011;45117;50.960;5.500;2022-09-09T11:11:12;6.28;;;1.70;;
59338;SDS011;45117;50.960;5.500;2022-09-09T11:13:44;4.43;;;1.52;;
59338;SDS011;45117;50.960;5.500;2022-09-09T11:16:19;4.30;;;1.52;;
59338;SDS011;45117;50.960;5.500;2022-09-09T11:18:50;7.00;;;1.50;;
59338;SDS011;45117;50.960;5.500;2022-09-09T11:21:26;3.65;;;1.30;;
59338;SDS011;45117;50.960;5.500;2022-09-09T11:23:56;6.47;;;1.45;;
59338;SDS011;45117;50.960;5.500;2022-09-09T11:26:29;3.60;;;1.30;;
59338;SDS011;45117;50.960;5.500;2022-09-09T11:29:03;5.20;;;1.38;;
59338;SDS011;45117;50.960;5.500;2022-09-09T11:32:07;3.83;;;1.55;;
59338;SDS011;45117;50.960;5.500;2022-09-09T11:34:50;5.55;;;1.38;;
59338;SDS011;45117;50.960;5.500;2022-09-09T11:37:39;5.18;;;1.45;;
59338;SDS011;45117;50.960;5.500;2022-09-09T11:40:19;7.30;;;2.08;;
59338;SDS011;45117;50.960;5.500;2022-09-09T11:43:00;5.90;;;1.73;;
59338;SDS011;45117;50.960;5.500;2022-09-09T11:45:30;4.65;;;1.90;;
59338;SDS011;45117;50.960;5.500;2022-09-09T11:48:00;8.95;;;2.00;;
59338;SDS011;45117;50.960;5.500;2022-09-09T11:50:32;5.63;;;1.45;;
59338;SDS011;45117;50.960;5.500;2022-09-09T11:53:05;6.10;;;1.90;;
59338;SDS011;45117;50.960;5.500;2022-09-09T11:55:46;7.25;;;1.90;;
59338;SDS011;45117;50.960;5.500;2022-09-09T11:58:16;5.43;;;1.40;;
59338;SDS011;45117;50.960;5.500;2022-09-09T12:00:44;7.95;;;1.70;;
59338;SDS011;45117;50.960;5.500;2022-09-09T12:06:08;5.32;;;1.35;;
59338;SDS011;45117;50.960;5.500;2022-09-09T12:08:43;5.60;;;1.40;;
59338;SDS011;45117;50.960;5.500;2022-09-09T12:11:12;7.85;;;1.30;;
59338;SDS011;45117;50.960;5.500;2022-09-09T12:13:52;6.50;;;1.77;;
59338;SDS011;45117;50.960;5.500;2022-09-09T12:16:27;4.57;;;1.50;;
59338;SDS011;45117;50.960;5.500;2022-09-09T12:19:03;4.55;;;1.42;;
59338;SDS011;45117;50.960;5.500;2022-09-09T12:21:33;5.25;;;1.40;;
59338;SDS011;45117;50.960;5.500;2022-09-09T12:24:06;7.40;;;1.63;;
59338;SDS011;45117;50.960;5.500;2022-09-09T12:26:35;6.32;;;1.40;;
59338;SDS011;45117;50.960;5.500;2022-09-09T12:29:11;7.90;;;1.58;;
59338;SDS011;45117;50.960;5.500;2022-09-09T12:31:46;4.95;;;1.60;;
59338;SDS011;45117;50.960;5.500;2022-09-09T12:34:20;4.57;;;1.35;;
59338;SDS011;45117;50.960;5.500;2022-09-09T12:36:57;3.65;;;1.17;;
59338;SDS011;45117;50.960;5.500;2022-09-09T12:39:31;3.03;;;0.95;;
59338;SDS011;45117;50.960;5.500;2022-09-09T12:42:00;3.92;;;1.20;;
59338;SDS011;45117;50.960;5.500;2022-09-09T12:44:29;4.38;;;0.93;;
59338;SDS011;45117;50.960;5.500;2022-09-09T12:46:58;2.58;;;1.00;;
59338;SDS011;45117;50.960;5.500;2022-09-09T12:49:30;4.55;;;1.27;;
59338;SDS011;45117;50.960;5.500;2022-09-09T12:52:00;4.13;;;1.02;;
59338;SDS011;45117;50.960;5.500;2022-09-09T12:54:31;2.30;;;0.95;;
59338;SDS011;45117;50.960;5.500;2022-09-09T12:56:59;2.97;;;0.70;;
59338;SDS011;45117;50.960;5.500;2022-09-09T12:59:26;2.38;;;0.65;;
59338;SDS011;45117;50.960;5.500;2022-09-09T13:02:01;3.08;;;0.85;;
59338;SDS011;45117;50.960;5.500;2022-09-09T13:04:27;3.03;;;1.10;;
59338;SDS011;45117;50.960;5.500;2022-09-09T13:07:04;4.97;;;1.10;;
59338;SDS011;45117;50.960;5.500;2022-09-09T13:09:33;2.30;;;1.00;;
59338;SDS011;45117;50.960;5.500;2022-09-09T13:11:59;3.70;;;1.00;;
59338;SDS011;45117;50.960;5.500;2022-09-09T13:14:28;4.20;;;1.27;;
59338;SDS011;45117;50.960;5.500;2022-09-09T13:17:00;2.72;;;0.90;;
59338;SDS011;45117;50.960;5.500;2022-09-09T13:19:29;3.50;;;1.27;;
59338;SDS011;45117;50.960;5.500;2022-09-09T13:22:00;4.30;;;1.00;;
59338;SDS011;45117;50.960;5.500;2022-09-09T13:24:39;3.80;;;1.20;;
59338;SDS011;45117;50.960;5.500;2022-09-09T13:27:19;3.50;;;1.40;;
59338;SDS011;45117;50.960;5.500;2022-09-09T13:29:52;4.30;;;1.30;;
59338;SDS011;45117;50.960;5.500;2022-09-09T13:32:21;4.03;;;1.38;;
59338;SDS011;45117;50.960;5.500;2022-09-09T13:34:53;6.50;;;1.80;;
59338;SDS011;45117;50.960;5.500;2022-09-09T13:37:23;5.47;;;1.70;;
59338;SDS011;45117;50.960;5.500;2022-09-09T13:39:56;4.72;;;1.08;;
59338;SDS011;45117;50.960;5.500;2022-09-09T13:42:27;4.50;;;1.30;;
59338;SDS011;45117;50.960;5.500;2022-09-09T13:44:57;4.03;;;1.25;;
59338;SDS011;45117;50.960;5.500;2022-09-09T13:47:27;4.18;;;1.30;;
59338;SDS011;45117;50.960;5.500;2022-09-09T13:49:56;4.57;;;1.10;;
59338;SDS011;45117;50.960;5.500;2022-09-09T13:52:23;3.65;;;0.98;;
59338;SDS011;45117;50.960;5.500;2022-09-09T13:54:51;7.75;;;1.40;;
59338;SDS011;45117;50.960;5.500;2022-09-09T13:57:21;7.07;;;1.27;;
59338;SDS011;45117;50.960;5.500;2022-09-09T13:59:49;4.72;;;1.10;;
59338;SDS011;45117;50.960;5.500;2022-09-09T14:02:15;4.38;;;1.13;;
59338;SDS011;45117;50.960;5.500;2022-09-09T14:04:42;2.85;;;0.90;;
59338;SDS011;45117;50.960;5.500;2022-09-09T14:07:09;3.75;;;1.20;;
59338;SDS011;45117;50.960;5.500;2022-09-09T14:09:38;4.88;;;1.10;;
59338;SDS011;45117;50.960;5.500;2022-09-09T14:12:05;4.57;;;0.98;;
59338;SDS011;45117;50.960;5.500;2022-09-09T14:14:35;4.28;;;0.90;;
59338;SDS011;45117;50.960;5.500;2022-09-09T14:17:02;3.53;;;1.10;;
59338;SDS011;45117;50.960;5.500;2022-09-09T14:19:28;3.03;;;1.00;;
59338;SDS011;45117;50.960;5.500;2022-09-09T14:21:56;3.88;;;1.00;;
59338;SDS011;45117;50.960;5.500;2022-09-09T14:24:22;1.80;;;0.90;;
59338;SDS011;45117;50.960;5.500;2022-09-09T14:26:50;2.03;;;0.80;;
59338;SDS011;45117;50.960;5.500;2022-09-09T14:29:16;3.97;;;1.30;;
59338;SDS011;45117;50.960;5.500;2022-09-09T14:31:44;4.07;;;1.10;;
59338;SDS011;45117;50.960;5.500;2022-09-09T14:34:11;3.72;;;0.90;;
59338;SDS011;45117;50.960;5.500;2022-09-09T14:36:38;3.10;;;0.82;;
59338;SDS011;45117;50.960;5.500;2022-09-09T14:39:04;4.38;;;1.08;;
59338;SDS011;45117;50.960;5.500;2022-09-09T14:41:31;5.28;;;1.15;;
59338;SDS011;45117;50.960;5.500;2022-09-09T14:43:57;2.78;;;1.10;;
59338;SDS011;45117;50.960;5.500;2022-09-09T14:46:24;6.18;;;1.63;;
59338;SDS011;45117;50.960;5.500;2022-09-09T14:48:52;3.08;;;0.80;;
59338;SDS011;45117;50.960;5.500;2022-09-09T14:51:20;3.45;;;0.90;;
59338;SDS011;45117;50.960;5.500;2022-09-09T14:53:50;5.50;;;0.95;;
59338;SDS011;45117;50.960;5.500;2022-09-09T14:56:19;4.32;;;1.10;;
59338;SDS011;45117;50.960;5.500;2022-09-09T14:58:48;5.43;;;1.00;;
59338;SDS011;45117;50.960;5.500;2022-09-09T15:01:16;5.45;;;1.00;;
59338;SDS011;45117;50.960;5.500;2022-09-09T15:03:48;3.55;;;0.98;;
59338;SDS011;45117;50.960;5.500;2022-09-09T15:06:17;2.25;;;0.80;;
59338;SDS011;45117;50.960;5.500;2022-09-09T15:08:45;3.35;;;0.80;;
59338;SDS011;45117;50.960;5.500;2022-09-09T15:11:13;3.67;;;0.80;;